sensor_id;sensor_type;location;lat;lon;timestamp;temperature;humidity
22813;DHT22;11573;51.334;3.244;2022-12-07T00:01:25;6.60;99.90
22813;DHT22;11573;51.334;3.244;2022-12-07T00:03:54;6.60;99.90
22813;DHT22;11573;51.334;3.244;2022-12-07T00:06:23;6.70;99.90
22813;DHT22;11573;51.334;3.244;2022-12-07T00:08:50;6.80;99.90
22813;DHT22;11573;51.334;3.244;2022-12-07T00:11:20;6.90;99.90
22813;DHT22;11573;51.334;3.244;2022-12-07T00:13:51;6.90;99.90
22813;DHT22;11573;51.334;3.244;2022-12-07T00:16:20;6.70;99.90
22813;DHT22;11573;51.334;3.244;2022-12-07T00:18:48;6.60;99.90
22813;DHT22;11573;51.334;3.244;2022-12-07T00:21:20;6.50;99.90
22813;DHT22;11573;51.334;3.244;2022-12-07T00:23:48;6.50;99.90
22813;DHT22;11573;51.334;3.244;2022-12-07T00:28:55;6.50;99.90
22813;DHT22;11573;51.334;3.244;2022-12-07T00:31:26;6.50;99.90
22813;DHT22;11573;51.334;3.244;2022-12-07T00:33:54;6.50;99.90
22813;DHT22;11573;51.334;3.244;2022-12-07T00:36:22;6.60;99.90
22813;DHT22;11573;51.334;3.244;2022-12-07T00:38:54;6.60;99.90
22813;DHT22;11573;51.334;3.244;2022-12-07T00:41:23;6.70;99.90
22813;DHT22;11573;51.334;3.244;2022-12-07T00:43:51;6.70;99.90
22813;DHT22;11573;51.334;3.244;2022-12-07T00:46:19;6.80;99.90
22813;DHT22;11573;51.334;3.244;2022-12-07T00:48:47;6.90;99.90
22813;DHT22;11573;51.334;3.244;2022-12-07T00:51:16;7.00;99.90
22813;DHT22;11573;51.334;3.244;2022-12-07T00:53:43;7.00;99.90
22813;DHT22;11573;51.334;3.244;2022-12-07T00:56:16;7.10;99.90
22813;DHT22;11573;51.334;3.244;2022-12-07T00:58:43;7.10;99.90
22813;DHT22;11573;51.334;3.244;2022-12-07T01:01:11;7.10;99.90
22813;DHT22;11573;51.334;3.244;2022-12-07T01:03:38;7.10;99.90
22813;DHT22;11573;51.334;3.244;2022-12-07T01:06:06;7.10;99.90
22813;DHT22;11573;51.334;3.244;2022-12-07T01:08:33;7.10;99.90
22813;DHT22;11573;51.334;3.244;2022-12-07T01:11:02;7.00;99.90
22813;DHT22;11573;51.334;3.244;2022-12-07T01:13:29;6.90;99.90
22813;DHT22;11573;51.334;3.244;2022-12-07T01:15:58;6.80;99.90
22813;DHT22;11573;51.334;3.244;2022-12-07T01:18:28;6.70;99.90
22813;DHT22;11573;51.334;3.244;2022-12-07T01:21:06;6.80;99.90
22813;DHT22;11573;51.334;3.244;2022-12-07T01:23:36;6.90;99.90
22813;DHT22;11573;51.334;3.244;2022-12-07T01:26:06;7.00;99.90
22813;DHT22;11573;51.334;3.244;2022-12-07T01:28:33;7.00;99.90
22813;DHT22;11573;51.334;3.244;2022-12-07T01:31:04;7.10;99.90
22813;DHT22;11573;51.334;3.244;2022-12-07T01:33:34;7.10;99.90
22813;DHT22;11573;51.334;3.244;2022-12-07T01:39:05;7.10;99.90
22813;DHT22;11573;51.334;3.244;2022-12-07T01:41:36;7.10;99.90
22813;DHT22;11573;51.334;3.244;2022-12-07T01:46:35;7.10;99.90
22813;DHT22;11573;51.334;3.244;2022-12-07T01:49:08;7.10;99.90
22813;DHT22;11573;51.334;3.244;2022-12-07T01:51:37;7.10;99.90
22813;DHT22;11573;51.334;3.244;2022-12-07T01:54:05;7.00;99.90
22813;DHT22;11573;51.334;3.244;2022-12-07T01:56:32;7.00;99.90
22813;DHT22;11573;51.334;3.244;2022-12-07T01:59:00;7.10;99.90
22813;DHT22;11573;51.334;3.244;2022-12-07T02:01:27;7.30;99.90
22813;DHT22;11573;51.334;3.244;2022-12-07T02:03:54;7.50;99.90
22813;DHT22;11573;51.334;3.244;2022-12-07T02:06:24;7.50;99.90
22813;DHT22;11573;51.334;3.244;2022-12-07T02:08:53;7.50;99.90
22813;DHT22;11573;51.334;3.244;2022-12-07T02:11:20;7.50;99.90
22813;DHT22;11573;51.334;3.244;2022-12-07T02:13:47;7.50;99.90
22813;DHT22;11573;51.334;3.244;2022-12-07T02:22:22;6.70;99.90
22813;DHT22;11573;51.334;3.244;2022-12-07T02:25:13;6.50;99.90
22813;DHT22;11573;51.334;3.244;2022-12-07T02:27:50;6.50;99.90
22813;DHT22;11573;51.334;3.244;2022-12-07T02:30:21;6.50;99.90
22813;DHT22;11573;51.334;3.244;2022-12-07T02:33:00;6.50;99.90
22813;DHT22;11573;51.334;3.244;2022-12-07T02:35:36;6.70;99.90
22813;DHT22;11573;51.334;3.244;2022-12-07T02:40:51;6.90;99.90
22813;DHT22;11573;51.334;3.244;2022-12-07T02:43:24;6.90;99.90
22813;DHT22;11573;51.334;3.244;2022-12-07T02:45:55;6.90;99.90
22813;DHT22;11573;51.334;3.244;2022-12-07T02:48:23;6.80;99.90
22813;DHT22;11573;51.334;3.244;2022-12-07T02:50:52;6.70;99.90
22813;DHT22;11573;51.334;3.244;2022-12-07T02:53:43;6.70;99.90
22813;DHT22;11573;51.334;3.244;2022-12-07T03:18:55;7.10;99.90
22813;DHT22;11573;51.334;3.244;2022-12-07T03:21:31;7.10;99.90
22813;DHT22;11573;51.334;3.244;2022-12-07T03:24:03;7.20;99.90
22813;DHT22;11573;51.334;3.244;2022-12-07T03:26:35;7.30;99.90
22813;DHT22;11573;51.334;3.244;2022-12-07T03:29:28;7.40;99.90
22813;DHT22;11573;51.334;3.244;2022-12-07T03:32:01;7.30;99.90
22813;DHT22;11573;51.334;3.244;2022-12-07T03:34:34;7.20;99.90
22813;DHT22;11573;51.334;3.244;2022-12-07T03:37:07;7.10;99.90
22813;DHT22;11573;51.334;3.244;2022-12-07T03:39:51;6.90;99.90
22813;DHT22;11573;51.334;3.244;2022-12-07T03:42:21;6.80;99.90
22813;DHT22;11573;51.334;3.244;2022-12-07T03:44:48;6.70;99.90
22813;DHT22;11573;51.334;3.244;2022-12-07T03:47:26;6.80;99.90
22813;DHT22;11573;51.334;3.244;2022-12-07T03:50:07;6.80;99.90
22813;DHT22;11573;51.334;3.244;2022-12-07T03:52:43;6.90;99.90
22813;DHT22;11573;51.334;3.244;2022-12-07T03:55:28;6.90;99.90
22813;DHT22;11573;51.334;3.244;2022-12-07T03:58:01;7.00;99.90
22813;DHT22;11573;51.334;3.244;2022-12-07T04:00:30;7.00;99.90
22813;DHT22;11573;51.334;3.244;2022-12-07T04:02:58;7.10;99.90
22813;DHT22;11573;51.334;3.244;2022-12-07T04:05:26;7.10;99.90
22813;DHT22;11573;51.334;3.244;2022-12-07T04:07:53;7.00;99.90
22813;DHT22;11573;51.334;3.244;2022-12-07T04:10:20;7.00;99.90
22813;DHT22;11573;51.334;3.244;2022-12-07T04:12:47;7.10;99.90
22813;DHT22;11573;51.334;3.244;2022-12-07T04:15:14;7.20;99.90
22813;DHT22;11573;51.334;3.244;2022-12-07T04:17:41;7.20;99.90
22813;DHT22;11573;51.334;3.244;2022-12-07T04:20:08;7.30;99.90
22813;DHT22;11573;51.334;3.244;2022-12-07T04:22:35;7.40;99.90
22813;DHT22;11573;51.334;3.244;2022-12-07T04:25:02;7.50;99.90
22813;DHT22;11573;51.334;3.244;2022-12-07T04:27:30;7.60;99.90
22813;DHT22;11573;51.334;3.244;2022-12-07T04:29:56;7.60;99.90
22813;DHT22;11573;51.334;3.244;2022-12-07T04:32:23;7.60;99.90
22813;DHT22;11573;51.334;3.244;2022-12-07T04:34:51;7.60;99.90
22813;DHT22;11573;51.334;3.244;2022-12-07T04:37:22;7.40;99.90
22813;DHT22;11573;51.334;3.244;2022-12-07T04:39:49;7.40;99.90
22813;DHT22;11573;51.334;3.244;2022-12-07T04:42:16;7.30;99.90
22813;DHT22;11573;51.334;3.244;2022-12-07T04:44:43;7.30;99.90
22813;DHT22;11573;51.334;3.244;2022-12-07T04:47:09;7.20;99.90
22813;DHT22;11573;51.334;3.244;2022-12-07T04:49:37;7.10;99.90
22813;DHT22;11573;51.334;3.244;2022-12-07T04:52:04;7.00;99.90
22813;DHT22;11573;51.334;3.244;2022-12-07T04:54:31;7.00;99.90
22813;DHT22;11573;51.334;3.244;2022-12-07T04:56:57;6.90;99.90
22813;DHT22;11573;51.334;3.244;2022-12-07T04:59:25;6.90;99.90
22813;DHT22;11573;51.334;3.244;2022-12-07T05:01:51;6.90;99.90
22813;DHT22;11573;51.334;3.244;2022-12-07T05:04:18;6.80;99.90
22813;DHT22;11573;51.334;3.244;2022-12-07T05:06:45;6.90;99.90
22813;DHT22;11573;51.334;3.244;2022-12-07T05:09:12;6.90;99.90
22813;DHT22;11573;51.334;3.244;2022-12-07T05:11:39;6.90;99.90
22813;DHT22;11573;51.334;3.244;2022-12-07T05:14:11;7.00;99.90
22813;DHT22;11573;51.334;3.244;2022-12-07T05:16:38;7.00;99.90
22813;DHT22;11573;51.334;3.244;2022-12-07T05:19:06;6.90;99.90
22813;DHT22;11573;51.334;3.244;2022-12-07T05:21:34;7.00;99.90
22813;DHT22;11573;51.334;3.244;2022-12-07T05:24:01;7.10;99.90
22813;DHT22;11573;51.334;3.244;2022-12-07T05:26:28;7.10;99.90
22813;DHT22;11573;51.334;3.244;2022-12-07T05:28:56;7.00;99.90
22813;DHT22;11573;51.334;3.244;2022-12-07T05:31:24;7.00;99.90
22813;DHT22;11573;51.334;3.244;2022-12-07T05:33:52;7.00;99.90
22813;DHT22;11573;51.334;3.244;2022-12-07T05:36:19;7.00;99.90
22813;DHT22;11573;51.334;3.244;2022-12-07T05:38:46;7.00;99.90
22813;DHT22;11573;51.334;3.244;2022-12-07T05:41:15;7.00;99.90
22813;DHT22;11573;51.334;3.244;2022-12-07T05:44:01;6.90;99.90
22813;DHT22;11573;51.334;3.244;2022-12-07T05:46:29;6.80;99.90
22813;DHT22;11573;51.334;3.244;2022-12-07T05:48:56;6.70;99.90
22813;DHT22;11573;51.334;3.244;2022-12-07T05:51:22;6.70;99.90
22813;DHT22;11573;51.334;3.244;2022-12-07T05:53:49;6.60;99.90
22813;DHT22;11573;51.334;3.244;2022-12-07T05:56:16;6.50;99.90
22813;DHT22;11573;51.334;3.244;2022-12-07T05:58:43;6.50;99.90
22813;DHT22;11573;51.334;3.244;2022-12-07T06:01:29;6.50;99.90
22813;DHT22;11573;51.334;3.244;2022-12-07T06:03:56;6.40;99.90
22813;DHT22;11573;51.334;3.244;2022-12-07T06:06:22;6.40;99.90
22813;DHT22;11573;51.334;3.244;2022-12-07T06:08:49;6.40;99.90
22813;DHT22;11573;51.334;3.244;2022-12-07T06:11:16;6.50;99.90
22813;DHT22;11573;51.334;3.244;2022-12-07T06:14:02;6.50;99.90
22813;DHT22;11573;51.334;3.244;2022-12-07T06:16:29;6.50;99.90
22813;DHT22;11573;51.334;3.244;2022-12-07T06:18:56;6.60;99.90
22813;DHT22;11573;51.334;3.244;2022-12-07T06:21:23;6.60;99.90
22813;DHT22;11573;51.334;3.244;2022-12-07T06:23:49;6.70;99.90
22813;DHT22;11573;51.334;3.244;2022-12-07T06:26:16;6.70;99.90
22813;DHT22;11573;51.334;3.244;2022-12-07T06:28:43;6.70;99.90
22813;DHT22;11573;51.334;3.244;2022-12-07T06:31:10;6.90;99.90
22813;DHT22;11573;51.334;3.244;2022-12-07T06:33:40;7.00;99.90
22813;DHT22;11573;51.334;3.244;2022-12-07T06:36:08;7.00;99.90
22813;DHT22;11573;51.334;3.244;2022-12-07T06:38:36;7.10;99.90
22813;DHT22;11573;51.334;3.244;2022-12-07T06:41:03;7.00;99.90
22813;DHT22;11573;51.334;3.244;2022-12-07T06:43:30;7.00;99.90
22813;DHT22;11573;51.334;3.244;2022-12-07T06:45:57;7.10;99.90
22813;DHT22;11573;51.334;3.244;2022-12-07T06:48:24;7.10;99.90
22813;DHT22;11573;51.334;3.244;2022-12-07T06:50:51;7.10;99.90
22813;DHT22;11573;51.334;3.244;2022-12-07T06:53:21;7.10;99.90
22813;DHT22;11573;51.334;3.244;2022-12-07T06:55:48;7.10;99.90
22813;DHT22;11573;51.334;3.244;2022-12-07T06:58:16;7.00;99.90
22813;DHT22;11573;51.334;3.244;2022-12-07T07:00:44;7.00;99.90
22813;DHT22;11573;51.334;3.244;2022-12-07T07:03:11;7.00;99.90
22813;DHT22;11573;51.334;3.244;2022-12-07T07:05:38;7.10;99.90
22813;DHT22;11573;51.334;3.244;2022-12-07T07:08:05;7.10;99.90
22813;DHT22;11573;51.334;3.244;2022-12-07T07:10:49;7.10;99.90
22813;DHT22;11573;51.334;3.244;2022-12-07T07:13:16;7.00;99.90
22813;DHT22;11573;51.334;3.244;2022-12-07T07:15:43;7.00;99.90
22813;DHT22;11573;51.334;3.244;2022-12-07T07:18:10;6.90;99.90
22813;DHT22;11573;51.334;3.244;2022-12-07T07:20:37;6.90;99.90
22813;DHT22;11573;51.334;3.244;2022-12-07T07:23:04;6.80;99.90
22813;DHT22;11573;51.334;3.244;2022-12-07T07:25:32;6.80;99.90
22813;DHT22;11573;51.334;3.244;2022-12-07T07:27:59;6.90;99.90
22813;DHT22;11573;51.334;3.244;2022-12-07T07:30:26;6.90;99.90
22813;DHT22;11573;51.334;3.244;2022-12-07T07:33:01;7.00;99.90
22813;DHT22;11573;51.334;3.244;2022-12-07T07:35:29;7.10;99.90
22813;DHT22;11573;51.334;3.244;2022-12-07T07:37:56;7.10;99.90
22813;DHT22;11573;51.334;3.244;2022-12-07T07:40:24;7.10;99.90
22813;DHT22;11573;51.334;3.244;2022-12-07T07:42:52;7.00;99.90
22813;DHT22;11573;51.334;3.244;2022-12-07T07:45:21;7.00;99.90
22813;DHT22;11573;51.334;3.244;2022-12-07T07:47:48;6.90;99.90
22813;DHT22;11573;51.334;3.244;2022-12-07T07:50:16;6.90;99.90
22813;DHT22;11573;51.334;3.244;2022-12-07T07:52:43;6.80;99.90
22813;DHT22;11573;51.334;3.244;2022-12-07T07:55:10;6.80;99.90
22813;DHT22;11573;51.334;3.244;2022-12-07T07:57:38;6.70;99.90
22813;DHT22;11573;51.334;3.244;2022-12-07T08:00:12;6.60;99.90
22813;DHT22;11573;51.334;3.244;2022-12-07T08:02:41;6.50;99.90
22813;DHT22;11573;51.334;3.244;2022-12-07T08:06:16;6.50;99.90
22813;DHT22;11573;51.334;3.244;2022-12-07T08:09:30;6.40;99.90
22813;DHT22;11573;51.334;3.244;2022-12-07T08:13:52;6.30;99.90
22813;DHT22;11573;51.334;3.244;2022-12-07T08:17:05;6.40;99.90
22813;DHT22;11573;51.334;3.244;2022-12-07T08:22:00;6.50;99.90
22813;DHT22;11573;51.334;3.244;2022-12-07T08:27:30;6.50;99.90
22813;DHT22;11573;51.334;3.244;2022-12-07T08:32:46;6.70;99.90
22813;DHT22;11573;51.334;3.244;2022-12-07T08:38:23;6.80;99.90
22813;DHT22;11573;51.334;3.244;2022-12-07T08:40:58;6.90;99.90
22813;DHT22;11573;51.334;3.244;2022-12-07T08:43:25;7.00;99.90
22813;DHT22;11573;51.334;3.244;2022-12-07T08:46:15;7.00;99.90
22813;DHT22;11573;51.334;3.244;2022-12-07T08:48:53;7.10;99.90
22813;DHT22;11573;51.334;3.244;2022-12-07T08:51:21;7.30;99.90
22813;DHT22;11573;51.334;3.244;2022-12-07T08:53:50;7.40;99.90
22813;DHT22;11573;51.334;3.244;2022-12-07T08:56:18;7.70;99.90
22813;DHT22;11573;51.334;3.244;2022-12-07T08:58:45;7.90;99.90
22813;DHT22;11573;51.334;3.244;2022-12-07T09:01:12;8.00;99.90
22813;DHT22;11573;51.334;3.244;2022-12-07T09:03:39;8.00;99.90
22813;DHT22;11573;51.334;3.244;2022-12-07T09:06:07;7.90;99.90
22813;DHT22;11573;51.334;3.244;2022-12-07T09:08:47;7.80;99.90
22813;DHT22;11573;51.334;3.244;2022-12-07T09:11:16;7.70;99.90
22813;DHT22;11573;51.334;3.244;2022-12-07T09:13:43;7.60;99.90
22813;DHT22;11573;51.334;3.244;2022-12-07T09:16:10;7.60;99.90
22813;DHT22;11573;51.334;3.244;2022-12-07T09:18:37;7.70;99.90
22813;DHT22;11573;51.334;3.244;2022-12-07T09:21:04;7.80;99.90
22813;DHT22;11573;51.334;3.244;2022-12-07T09:23:31;7.90;99.90
22813;DHT22;11573;51.334;3.244;2022-12-07T09:26:00;7.90;99.90
22813;DHT22;11573;51.334;3.244;2022-12-07T09:28:33;7.80;99.90
22813;DHT22;11573;51.334;3.244;2022-12-07T09:31:00;7.80;99.90
22813;DHT22;11573;51.334;3.244;2022-12-07T09:33:47;7.90;99.90
22813;DHT22;11573;51.334;3.244;2022-12-07T09:36:19;8.00;99.90
22813;DHT22;11573;51.334;3.244;2022-12-07T09:38:46;7.80;99.90
22813;DHT22;11573;51.334;3.244;2022-12-07T09:41:12;7.60;99.90
22813;DHT22;11573;51.334;3.244;2022-12-07T09:43:40;7.50;99.90
22813;DHT22;11573;51.334;3.244;2022-12-07T09:46:15;7.30;99.90
22813;DHT22;11573;51.334;3.244;2022-12-07T09:48:43;7.20;99.90
22813;DHT22;11573;51.334;3.244;2022-12-07T09:51:22;7.10;99.90
22813;DHT22;11573;51.334;3.244;2022-12-07T09:53:53;7.10;99.90
22813;DHT22;11573;51.334;3.244;2022-12-07T09:56:20;7.20;99.90
22813;DHT22;11573;51.334;3.244;2022-12-07T09:58:49;7.20;99.90
22813;DHT22;11573;51.334;3.244;2022-12-07T10:01:19;7.20;99.90
22813;DHT22;11573;51.334;3.244;2022-12-07T10:03:55;7.10;99.90
22813;DHT22;11573;51.334;3.244;2022-12-07T10:06:23;7.20;99.90
22813;DHT22;11573;51.334;3.244;2022-12-07T10:08:50;7.20;99.90
22813;DHT22;11573;51.334;3.244;2022-12-07T10:11:16;7.30;99.90
22813;DHT22;11573;51.334;3.244;2022-12-07T10:13:47;7.30;99.90
22813;DHT22;11573;51.334;3.244;2022-12-07T10:16:39;7.50;99.90
22813;DHT22;11573;51.334;3.244;2022-12-07T10:19:31;7.60;99.90
22813;DHT22;11573;51.334;3.244;2022-12-07T10:22:20;7.60;99.90
22813;DHT22;11573;51.334;3.244;2022-12-07T10:24:49;7.80;99.90
22813;DHT22;11573;51.334;3.244;2022-12-07T10:27:22;8.00;99.90
22813;DHT22;11573;51.334;3.244;2022-12-07T10:29:53;8.00;99.90
22813;DHT22;11573;51.334;3.244;2022-12-07T10:34:46;8.00;99.90
22813;DHT22;11573;51.334;3.244;2022-12-07T10:37:19;8.10;99.90
22813;DHT22;11573;51.334;3.244;2022-12-07T10:39:50;8.00;99.90
22813;DHT22;11573;51.334;3.244;2022-12-07T10:42:26;8.00;99.90
22813;DHT22;11573;51.334;3.244;2022-12-07T10:48:02;8.10;99.90
22813;DHT22;11573;51.334;3.244;2022-12-07T11:10:24;7.40;99.90
22813;DHT22;11573;51.334;3.244;2022-12-07T11:21:57;7.60;99.90
22813;DHT22;11573;51.334;3.244;2022-12-07T11:30:15;7.90;99.90
22813;DHT22;11573;51.334;3.244;2022-12-07T11:38:42;8.40;99.90
22813;DHT22;11573;51.334;3.244;2022-12-07T11:41:10;8.50;99.90
22813;DHT22;11573;51.334;3.244;2022-12-07T11:44:07;8.60;99.90
22813;DHT22;11573;51.334;3.244;2022-12-07T11:46:59;8.70;99.90
22813;DHT22;11573;51.334;3.244;2022-12-07T11:49:51;8.70;99.90
22813;DHT22;11573;51.334;3.244;2022-12-07T11:52:33;8.50;99.90
22813;DHT22;11573;51.334;3.244;2022-12-07T11:55:07;8.30;99.90
22813;DHT22;11573;51.334;3.244;2022-12-07T11:57:44;8.10;99.90
22813;DHT22;11573;51.334;3.244;2022-12-07T12:00:15;8.10;99.90
22813;DHT22;11573;51.334;3.244;2022-12-07T12:05:21;7.80;99.90
22813;DHT22;11573;51.334;3.244;2022-12-07T12:11:03;7.60;99.90
22813;DHT22;11573;51.334;3.244;2022-12-07T12:20:07;7.60;99.90
22813;DHT22;11573;51.334;3.244;2022-12-07T12:23:29;7.60;99.90
22813;DHT22;11573;51.334;3.244;2022-12-07T12:31:28;7.80;99.90
22813;DHT22;11573;51.334;3.244;2022-12-07T12:34:00;7.90;99.90
22813;DHT22;11573;51.334;3.244;2022-12-07T12:36:43;7.90;99.90
22813;DHT22;11573;51.334;3.244;2022-12-07T12:39:13;7.90;99.90
22813;DHT22;11573;51.334;3.244;2022-12-07T12:47:03;7.90;99.90
22813;DHT22;11573;51.334;3.244;2022-12-07T12:49:35;7.90;99.90
22813;DHT22;11573;51.334;3.244;2022-12-07T12:57:36;8.10;99.90
22813;DHT22;11573;51.334;3.244;2022-12-07T13:00:19;8.20;99.90
22813;DHT22;11573;51.334;3.244;2022-12-07T13:02:52;8.40;99.90
22813;DHT22;11573;51.334;3.244;2022-12-07T13:05:26;8.60;99.90
22813;DHT22;11573;51.334;3.244;2022-12-07T13:08:00;8.60;99.90
22813;DHT22;11573;51.334;3.244;2022-12-07T13:15:47;8.40;99.90
22813;DHT22;11573;51.334;3.244;2022-12-07T13:28:54;8.90;99.90
22813;DHT22;11573;51.334;3.244;2022-12-07T13:31:39;9.00;99.90
22813;DHT22;11573;51.334;3.244;2022-12-07T13:34:42;9.20;99.90
22813;DHT22;11573;51.334;3.244;2022-12-07T13:37:19;8.80;99.90
22813;DHT22;11573;51.334;3.244;2022-12-07T13:39:51;8.70;99.90
22813;DHT22;11573;51.334;3.244;2022-12-07T13:42:32;8.50;99.90
22813;DHT22;11573;51.334;3.244;2022-12-07T13:45:16;8.40;99.90
22813;DHT22;11573;51.334;3.244;2022-12-07T13:47:49;8.40;99.90
22813;DHT22;11573;51.334;3.244;2022-12-07T13:50:27;8.30;99.90
22813;DHT22;11573;51.334;3.244;2022-12-07T13:53:12;8.30;99.90
22813;DHT22;11573;51.334;3.244;2022-12-07T13:55:45;8.50;99.90
22813;DHT22;11573;51.334;3.244;2022-12-07T13:58:20;8.70;99.90
22813;DHT22;11573;51.334;3.244;2022-12-07T14:00:48;8.60;99.90
22813;DHT22;11573;51.334;3.244;2022-12-07T14:05:44;8.70;99.90
22813;DHT22;11573;51.334;3.244;2022-12-07T14:13:36;8.30;99.90
22813;DHT22;11573;51.334;3.244;2022-12-07T14:16:30;8.30;99.90
22813;DHT22;11573;51.334;3.244;2022-12-07T14:19:00;8.30;99.90
22813;DHT22;11573;51.334;3.244;2022-12-07T14:21:30;8.10;99.90
22813;DHT22;11573;51.334;3.244;2022-12-07T14:24:18;8.10;99.90
22813;DHT22;11573;51.334;3.244;2022-12-07T14:26:47;8.00;99.90
22813;DHT22;11573;51.334;3.244;2022-12-07T14:31:56;7.80;99.90
22813;DHT22;11573;51.334;3.244;2022-12-07T14:34:23;7.80;99.90
22813;DHT22;11573;51.334;3.244;2022-12-07T14:36:51;7.90;99.90
22813;DHT22;11573;51.334;3.244;2022-12-07T14:39:17;7.80;99.90
22813;DHT22;11573;51.334;3.244;2022-12-07T14:41:44;7.70;99.90
22813;DHT22;11573;51.334;3.244;2022-12-07T14:44:19;7.70;99.90
22813;DHT22;11573;51.334;3.244;2022-12-07T14:46:50;7.60;99.90
22813;DHT22;11573;51.334;3.244;2022-12-07T14:49:37;7.60;99.90
22813;DHT22;11573;51.334;3.244;2022-12-07T14:52:08;7.60;99.90
22813;DHT22;11573;51.334;3.244;2022-12-07T14:54:58;7.70;99.90
22813;DHT22;11573;51.334;3.244;2022-12-07T14:57:25;7.70;99.90
22813;DHT22;11573;51.334;3.244;2022-12-07T14:59:52;7.70;99.90
22813;DHT22;11573;51.334;3.244;2022-12-07T15:02:19;7.60;99.90
22813;DHT22;11573;51.334;3.244;2022-12-07T15:04:46;7.60;99.90
22813;DHT22;11573;51.334;3.244;2022-12-07T15:07:19;7.50;99.90
22813;DHT22;11573;51.334;3.244;2022-12-07T15:09:47;7.50;99.90
22813;DHT22;11573;51.334;3.244;2022-12-07T15:12:14;7.50;99.90
22813;DHT22;11573;51.334;3.244;2022-12-07T15:14:41;7.50;99.90
22813;DHT22;11573;51.334;3.244;2022-12-07T15:17:11;7.50;99.90
22813;DHT22;11573;51.334;3.244;2022-12-07T15:19:53;7.50;99.90
22813;DHT22;11573;51.334;3.244;2022-12-07T15:22:20;7.50;99.90
22813;DHT22;11573;51.334;3.244;2022-12-07T15:24:47;7.40;99.90
22813;DHT22;11573;51.334;3.244;2022-12-07T15:27:14;7.40;99.90
22813;DHT22;11573;51.334;3.244;2022-12-07T15:29:41;7.40;99.90
22813;DHT22;11573;51.334;3.244;2022-12-07T15:32:08;7.40;99.90
22813;DHT22;11573;51.334;3.244;2022-12-07T15:34:35;7.30;99.90
22813;DHT22;11573;51.334;3.244;2022-12-07T15:37:07;7.20;99.90
22813;DHT22;11573;51.334;3.244;2022-12-07T15:39:35;7.10;99.90
22813;DHT22;11573;51.334;3.244;2022-12-07T15:42:03;7.20;99.90
22813;DHT22;11573;51.334;3.244;2022-12-07T15:44:29;7.10;99.90
22813;DHT22;11573;51.334;3.244;2022-12-07T15:47:15;7.10;99.90
22813;DHT22;11573;51.334;3.244;2022-12-07T15:49:43;7.00;99.90
22813;DHT22;11573;51.334;3.244;2022-12-07T15:52:10;7.00;99.90
22813;DHT22;11573;51.334;3.244;2022-12-07T15:54:36;7.10;99.90
22813;DHT22;11573;51.334;3.244;2022-12-07T15:57:03;7.10;99.90
22813;DHT22;11573;51.334;3.244;2022-12-07T15:59:30;7.10;99.90
22813;DHT22;11573;51.334;3.244;2022-12-07T16:01:58;7.00;99.90
22813;DHT22;11573;51.334;3.244;2022-12-07T16:04:27;7.10;99.90
22813;DHT22;11573;51.334;3.244;2022-12-07T16:06:55;7.00;99.90
22813;DHT22;11573;51.334;3.244;2022-12-07T16:09:23;7.10;99.90
22813;DHT22;11573;51.334;3.244;2022-12-07T16:11:50;7.10;99.90
22813;DHT22;11573;51.334;3.244;2022-12-07T16:14:17;7.20;99.90
22813;DHT22;11573;51.334;3.244;2022-12-07T16:16:44;7.20;99.90
22813;DHT22;11573;51.334;3.244;2022-12-07T16:19:11;7.20;99.90
22813;DHT22;11573;51.334;3.244;2022-12-07T16:21:39;7.20;99.90
22813;DHT22;11573;51.334;3.244;2022-12-07T16:24:06;7.10;99.90
22813;DHT22;11573;51.334;3.244;2022-12-07T16:26:34;7.20;99.90
22813;DHT22;11573;51.334;3.244;2022-12-07T16:29:01;7.20;99.90
22813;DHT22;11573;51.334;3.244;2022-12-07T16:31:28;7.20;99.90
22813;DHT22;11573;51.334;3.244;2022-12-07T16:33:57;7.20;99.90
22813;DHT22;11573;51.334;3.244;2022-12-07T16:36:24;7.20;99.90
22813;DHT22;11573;51.334;3.244;2022-12-07T16:39:12;7.30;99.90
22813;DHT22;11573;51.334;3.244;2022-12-07T16:41:39;7.30;99.90
22813;DHT22;11573;51.334;3.244;2022-12-07T16:44:09;7.30;99.90
22813;DHT22;11573;51.334;3.244;2022-12-07T16:46:36;7.30;99.90
22813;DHT22;11573;51.334;3.244;2022-12-07T16:49:04;7.20;99.90
22813;DHT22;11573;51.334;3.244;2022-12-07T16:51:32;7.20;99.90
22813;DHT22;11573;51.334;3.244;2022-12-07T16:54:01;7.30;99.90
22813;DHT22;11573;51.334;3.244;2022-12-07T16:56:28;7.20;99.90
22813;DHT22;11573;51.334;3.244;2022-12-07T16:58:58;7.10;99.90
22813;DHT22;11573;51.334;3.244;2022-12-07T17:01:25;7.00;99.90
22813;DHT22;11573;51.334;3.244;2022-12-07T17:03:57;7.00;99.90
22813;DHT22;11573;51.334;3.244;2022-12-07T17:06:26;7.00;99.90
22813;DHT22;11573;51.334;3.244;2022-12-07T17:08:54;6.90;99.90
22813;DHT22;11573;51.334;3.244;2022-12-07T17:11:24;6.90;99.90
22813;DHT22;11573;51.334;3.244;2022-12-07T17:13:52;7.00;99.90
22813;DHT22;11573;51.334;3.244;2022-12-07T17:16:37;6.90;99.90
22813;DHT22;11573;51.334;3.244;2022-12-07T17:19:06;6.90;99.90
22813;DHT22;11573;51.334;3.244;2022-12-07T17:21:33;6.90;99.90
22813;DHT22;11573;51.334;3.244;2022-12-07T17:24:02;6.80;99.90
22813;DHT22;11573;51.334;3.244;2022-12-07T17:26:30;6.80;99.90
22813;DHT22;11573;51.334;3.244;2022-12-07T17:29:02;6.70;99.90
22813;DHT22;11573;51.334;3.244;2022-12-07T17:31:30;6.80;99.90
22813;DHT22;11573;51.334;3.244;2022-12-07T17:33:57;6.70;99.90
22813;DHT22;11573;51.334;3.244;2022-12-07T17:36:27;6.70;99.90
22813;DHT22;11573;51.334;3.244;2022-12-07T17:38:54;6.70;99.90
22813;DHT22;11573;51.334;3.244;2022-12-07T17:41:30;6.70;99.90
22813;DHT22;11573;51.334;3.244;2022-12-07T17:44:17;6.80;99.90
22813;DHT22;11573;51.334;3.244;2022-12-07T17:46:46;6.90;99.90
22813;DHT22;11573;51.334;3.244;2022-12-07T17:49:13;7.00;99.90
22813;DHT22;11573;51.334;3.244;2022-12-07T17:51:40;7.00;99.90
22813;DHT22;11573;51.334;3.244;2022-12-07T17:54:25;6.90;99.90
22813;DHT22;11573;51.334;3.244;2022-12-07T17:56:52;6.80;99.90
22813;DHT22;11573;51.334;3.244;2022-12-07T17:59:19;6.70;99.90
22813;DHT22;11573;51.334;3.244;2022-12-07T18:01:46;6.60;99.90
22813;DHT22;11573;51.334;3.244;2022-12-07T18:04:13;6.60;99.90
22813;DHT22;11573;51.334;3.244;2022-12-07T18:06:41;6.50;99.90
22813;DHT22;11573;51.334;3.244;2022-12-07T18:09:14;6.50;99.90
22813;DHT22;11573;51.334;3.244;2022-12-07T18:11:41;6.50;99.90
22813;DHT22;11573;51.334;3.244;2022-12-07T18:14:08;6.50;99.90
22813;DHT22;11573;51.334;3.244;2022-12-07T18:16:35;6.50;99.90
22813;DHT22;11573;51.334;3.244;2022-12-07T18:19:04;6.50;99.90
22813;DHT22;11573;51.334;3.244;2022-12-07T18:21:32;6.50;99.90
22813;DHT22;11573;51.334;3.244;2022-12-07T18:24:01;6.50;99.90
22813;DHT22;11573;51.334;3.244;2022-12-07T18:26:30;6.50;99.90
22813;DHT22;11573;51.334;3.244;2022-12-07T18:29:01;6.50;99.90
22813;DHT22;11573;51.334;3.244;2022-12-07T18:31:28;6.50;99.90
22813;DHT22;11573;51.334;3.244;2022-12-07T18:34:00;6.50;99.90
22813;DHT22;11573;51.334;3.244;2022-12-07T18:36:27;6.40;99.90
22813;DHT22;11573;51.334;3.244;2022-12-07T18:38:54;6.40;99.90
22813;DHT22;11573;51.334;3.244;2022-12-07T18:41:21;6.50;99.90
22813;DHT22;11573;51.334;3.244;2022-12-07T18:43:48;6.50;99.90